Time;durP1;ratioP1;P1;durP2;ratioP2;P2;SDS_P1;SDS_P2;PMS_P1;PMS_P2;Temp;Humidity;BMP_temperature;BMP_pressure;BME280_temperature;BME280_humidity;BME280_pressure;Samples;Min_cycle;Max_cycle;Signal;HPM_P1;HPM_P2
2022/03/15 00:02:51;;;;;;;85.40;31.35;;;;;;;;;;6219567;28;20068;-68
2022/03/15 00:05:52;;;;;;;89.88;31.63;;;;;;;;;;6220494;28;20077;-68
2022/03/15 00:08:53;;;;;;;89.65;33.20;;;;;;;;;;6220175;28;20038;-68
2022/03/15 00:11:54;;;;;;;86.60;32.67;;;;;;;;;;6218374;28;20129;-68
2022/03/15 00:14:55;;;;;;;84.05;32.40;;;;;;;;;;6220838;28;20046;-68
2022/03/15 00:17:56;;;;;;;85.45;32.88;;;;;;;;;;6220724;28;20480;-68
2022/03/15 00:20:58;;;;;;;85.28;31.13;;;;;;;;;;6217926;28;20069;-69
2022/03/15 00:23:59;;;;;;;89.38;33.55;;;;;;;;;;6219781;28;20049;-68
2022/03/15 00:27:01;;;;;;;83.15;32.55;;;;;;;;;;6217326;28;20073;-69
2022/03/15 00:30:05;;;;;;;84.45;32.03;;;;;;;;;;6212396;28;20054;-69
2022/03/15 00:33:08;;;;;;;75.82;30.40;;;;;;;;;;6214436;28;20504;-69
2022/03/15 00:36:08;;;;;;;142.18;43.47;;;;;;;;;;6217175;28;20077;-68
2022/03/15 00:39:09;;;;;;;122.57;38.85;;;;;;;;;;6213652;28;20057;-70
2022/03/15 00:42:10;;;;;;;108.63;38.00;;;;;;;;;;6213882;28;20156;-69
2022/03/15 00:45:11;;;;;;;91.32;32.53;;;;;;;;;;6213970;28;20046;-69
2022/03/15 00:48:11;;;;;;;85.32;33.28;;;;;;;;;;6212274;28;20141;-69
2022/03/15 00:51:12;;;;;;;108.38;35.88;;;;;;;;;;6210065;28;20516;-69
2022/03/15 00:54:13;;;;;;;110.43;37.75;;;;;;;;;;6212413;28;20052;-68
2022/03/15 00:57:13;;;;;;;101.90;35.83;;;;;;;;;;6215196;28;20583;-69
2022/03/15 01:00:16;;;;;;;108.47;37.35;;;;;;;;;;6211076;28;20050;-69
2022/03/15 01:03:16;;;;;;;;;;;;;;;;;;6212769;28;20068;-68
2022/03/15 01:06:17;;;;;;;95.22;33.25;;;;;;;;;;6213493;28;20028;-68
2022/03/15 01:09:18;;;;;;;85.97;31.15;;;;;;;;;;6213850;28;20673;-68
2022/03/15 01:12:19;;;;;;;84.22;31.90;;;;;;;;;;6213625;28;20151;-66
2022/03/15 01:15:21;;;;;;;76.35;29.40;;;;;;;;;;6211505;28;20142;-67
2022/03/15 01:18:21;;;;;;;92.68;32.20;;;;;;;;;;6211230;28;20053;-68
2022/03/15 01:21:22;;;;;;;83.43;32.08;;;;;;;;;;6208023;28;20081;-67
2022/03/15 01:24:23;;;;;;;77.88;29.33;;;;;;;;;;6211892;28;20108;-66
2022/03/15 01:27:24;;;;;;;77.22;27.38;;;;;;;;;;6212444;28;20049;-67
2022/03/15 01:30:24;;;;;;;80.57;29.10;;;;;;;;;;6211915;28;20551;-67
2022/03/15 01:33:26;;;;;;;86.22;30.23;;;;;;;;;;6212962;28;20042;-68
2022/03/15 01:36:27;;;;;;;92.55;33.55;;;;;;;;;;6216054;28;20061;-68
2022/03/15 01:39:27;;;;;;;94.05;34.65;;;;;;;;;;6215377;28;20461;-68
2022/03/15 01:42:28;;;;;;;76.13;29.33;;;;;;;;;;6217608;28;20052;-67
2022/03/15 01:45:49;;;;;;;86.57;31.92;;;;;;;;;;6216322;28;20042;-67
2022/03/15 01:48:49;;;;;;;90.90;32.80;;;;;;;;;;6218366;28;20115;-68
2022/03/15 01:51:51;;;;;;;102.32;33.75;;;;;;;;;;6213720;28;20514;-67
2022/03/15 01:54:52;;;;;;;93.22;32.60;;;;;;;;;;6213666;28;20096;-68
2022/03/15 01:57:54;;;;;;;74.38;27.30;;;;;;;;;;6213625;28;20081;-67
2022/03/15 02:00:55;;;;;;;86.95;30.63;;;;;;;;;;6211445;28;20046;-67
2022/03/15 02:03:56;;;;;;;91.53;31.08;;;;;;;;;;6219359;28;20092;-67
2022/03/15 02:07:03;;;;;;;94.43;33.10;;;;;;;;;;6219875;28;20501;-67
2022/03/15 02:10:10;;;;;;;91.28;33.90;;;;;;;;;;6216663;28;20069;-68
2022/03/15 02:13:11;;;;;;;86.35;31.83;;;;;;;;;;6213733;28;20137;-67
2022/03/15 02:16:12;;;;;;;93.27;33.90;;;;;;;;;;6210386;28;20512;-66
2022/03/15 02:19:13;;;;;;;98.13;34.40;;;;;;;;;;6208468;28;20054;-66
2022/03/15 02:22:14;;;;;;;97.88;35.45;;;;;;;;;;6210209;28;20069;-67
2022/03/15 02:25:15;;;;;;;101.82;33.35;;;;;;;;;;6213397;28;20257;-66
2022/03/15 02:28:16;;;;;;;93.32;33.55;;;;;;;;;;6211754;28;20527;-66
2022/03/15 02:31:16;;;;;;;97.20;33.78;;;;;;;;;;6212423;28;20050;-66
2022/03/15 02:34:17;;;;;;;87.88;31.60;;;;;;;;;;6214514;28;20141;-67
2022/03/15 02:37:18;;;;;;;88.40;32.53;;;;;;;;;;6212386;28;20096;-66
2022/03/15 02:40:18;;;;;;;86.82;33.40;;;;;;;;;;6210247;28;20052;-67
2022/03/15 02:43:19;;;;;;;84.30;32.17;;;;;;;;;;6211697;28;20049;-66
2022/03/15 02:46:20;;;;;;;87.28;32.33;;;;;;;;;;6211650;28;21903;-66
2022/03/15 02:49:20;;;;;;;87.90;31.35;;;;;;;;;;6210966;28;20045;-68
2022/03/15 02:52:21;;;;;;;81.03;32.88;;;;;;;;;;6211415;28;20042;-66
2022/03/15 02:55:22;;;;;;;90.00;30.60;;;;;;;;;;6210295;28;20096;-67
2022/03/15 02:58:22;;;;;;;97.63;33.88;;;;;;;;;;6212599;28;20096;-68
2022/03/15 03:01:24;;;;;;;88.80;31.98;;;;;;;;;;6209209;28;20502;-68
2022/03/15 03:04:25;;;;;;;93.30;34.25;;;;;;;;;;6212253;28;20500;-67
2022/03/15 03:07:26;;;;;;;86.13;31.45;;;;;;;;;;6211894;28;20045;-67
2022/03/15 03:10:27;;;;;;;93.30;33.42;;;;;;;;;;6210230;28;20576;-67
2022/03/15 03:13:30;;;;;;;83.63;29.17;;;;;;;;;;6209555;28;20136;-67
2022/03/15 03:16:32;;;;;;;76.82;30.70;;;;;;;;;;6209525;28;20074;-68
2022/03/15 03:19:34;;;;;;;83.30;29.90;;;;;;;;;;6211385;28;20072;-68
2022/03/15 03:22:36;;;;;;;92.68;33.10;;;;;;;;;;6212035;28;20081;-67
2022/03/15 03:25:36;;;;;;;94.18;34.28;;;;;;;;;;6210872;28;20061;-67
2022/03/15 03:28:38;;;;;;;94.40;34.95;;;;;;;;;;6209453;28;20041;-67
2022/03/15 03:31:40;;;;;;;84.88;32.58;;;;;;;;;;6208002;28;20046;-68
2022/03/15 03:34:41;;;;;;;80.80;31.40;;;;;;;;;;6210200;28;20501;-67
2022/03/15 03:37:42;;;;;;;87.78;33.30;;;;;;;;;;6212553;28;20053;-67
2022/03/15 03:40:43;;;;;;;83.65;32.40;;;;;;;;;;6211020;28;20459;-67
2022/03/15 03:43:43;;;;;;;81.38;31.02;;;;;;;;;;6211203;28;20053;-67
2022/03/15 03:46:45;;;;;;;83.80;32.13;;;;;;;;;;6211731;28;20034;-68
2022/03/15 03:49:46;;;;;;;84.40;32.43;;;;;;;;;;6210820;28;20173;-68
2022/03/15 03:52:47;;;;;;;84.60;33.25;;;;;;;;;;6211055;28;20295;-66
2022/03/15 03:55:47;;;;;;;87.55;33.97;;;;;;;;;;6216438;28;20052;-67
2022/03/15 03:58:48;;;;;;;82.10;33.88;;;;;;;;;;6214671;28;20065;-67
2022/03/15 04:01:49;;;;;;;87.85;33.88;;;;;;;;;;6213526;28;20129;-68
2022/03/15 04:04:51;;;;;;;87.95;32.50;;;;;;;;;;6214678;28;20073;-68
2022/03/15 04:07:53;;;;;;;;;;;;;;;;;;6212003;28;20049;-68
2022/03/15 04:10:53;;;;;;;81.60;32.85;;;;;;;;;;6214325;28;20009;-69
2022/03/15 04:13:55;;;;;;;86.50;34.38;;;;;;;;;;6212558;28;20042;-67
2022/03/15 04:16:56;;;;;;;84.03;34.53;;;;;;;;;;6214144;28;20069;-67
2022/03/15 04:19:57;;;;;;;84.88;34.47;;;;;;;;;;6215509;28;20042;-67
2022/03/15 04:22:58;;;;;;;86.93;33.38;;;;;;;;;;6216418;28;20042;-66
2022/03/15 04:25:59;;;;;;;79.00;31.88;;;;;;;;;;6214780;28;20048;-66
2022/03/15 04:28:59;;;;;;;79.60;31.73;;;;;;;;;;6214850;28;20052;-66
2022/03/15 04:32:00;;;;;;;88.22;34.47;;;;;;;;;;6214671;28;20153;-67
2022/03/15 04:35:01;;;;;;;83.60;33.63;;;;;;;;;;6216438;28;20050;-66
2022/03/15 04:38:02;;;;;;;81.40;32.03;;;;;;;;;;6214856;28;20084;-67
2022/03/15 04:41:05;;;;;;;85.97;31.57;;;;;;;;;;6213277;28;20085;-66
2022/03/15 04:44:06;;;;;;;81.25;32.30;;;;;;;;;;6213041;28;20048;-67
2022/03/15 04:47:07;;;;;;;87.38;32.50;;;;;;;;;;6214998;28;20386;-66
2022/03/15 04:50:10;;;;;;;80.35;32.40;;;;;;;;;;6212245;28;20133;-65
2022/03/15 04:53:11;;;;;;;93.97;36.50;;;;;;;;;;6214131;28;20809;-66
2022/03/15 04:56:11;;;;;;;88.78;34.10;;;;;;;;;;6214629;28;20044;-68
2022/03/15 04:59:12;;;;;;;90.20;33.83;;;;;;;;;;6213864;28;20374;-65
2022/03/15 05:02:13;;;;;;;91.15;33.65;;;;;;;;;;6215047;28;20394;-66
2022/03/15 05:05:13;;;;;;;85.25;32.63;;;;;;;;;;6212611;28;20054;-68
2022/03/15 05:08:14;;;;;;;108.10;41.72;;;;;;;;;;6213804;28;20168;-65
2022/03/15 05:11:15;;;;;;;112.20;40.42;;;;;;;;;;6208374;28;20057;-65
2022/03/15 05:14:16;;;;;;;131.65;48.03;;;;;;;;;;6213884;28;20600;-66
2022/03/15 05:17:17;;;;;;;182.25;53.25;;;;;;;;;;6212871;28;20049;-67
2022/03/15 05:20:18;;;;;;;151.38;52.50;;;;;;;;;;6213682;28;20493;-67
2022/03/15 05:23:19;;;;;;;139.02;48.35;;;;;;;;;;6210509;28;20096;-67
2022/03/15 05:26:21;;;;;;;123.45;46.53;;;;;;;;;;6212716;28;20054;-67
2022/03/15 05:29:22;;;;;;;103.22;39.70;;;;;;;;;;6213873;28;20452;-68
2022/03/15 05:32:23;;;;;;;105.65;40.72;;;;;;;;;;6212776;28;20049;-67
2022/03/15 05:35:24;;;;;;;103.75;41.30;;;;;;;;;;6213309;28;20124;-68
2022/03/15 05:38:25;;;;;;;111.07;42.15;;;;;;;;;;6215048;28;20500;-67
2022/03/15 05:41:26;;;;;;;115.43;42.72;;;;;;;;;;6212030;28;20463;-67
2022/03/15 05:44:27;;;;;;;112.63;45.13;;;;;;;;;;6211958;28;20052;-67
2022/03/15 05:47:28;;;;;;;114.75;43.53;;;;;;;;;;6213351;28;20069;-67
2022/03/15 05:50:29;;;;;;;117.15;45.42;;;;;;;;;;6211777;28;20042;-68
2022/03/15 05:53:30;;;;;;;106.43;44.53;;;;;;;;;;6210598;28;20050;-67
2022/03/15 05:56:30;;;;;;;113.63;46.20;;;;;;;;;;6210104;28;20489;-68
2022/03/15 05:59:31;;;;;;;106.72;44.53;;;;;;;;;;6215283;28;20459;-67
2022/03/15 06:02:31;;;;;;;108.45;44.40;;;;;;;;;;6214954;28;20053;-68
2022/03/15 06:05:33;;;;;;;123.75;47.05;;;;;;;;;;6217846;28;20112;-68
2022/03/15 06:08:33;;;;;;;119.15;46.50;;;;;;;;;;6219929;28;20050;-68
2022/03/15 06:11:39;;;;;;;122.05;45.08;;;;;;;;;;6211912;28;20527;-70
2022/03/15 06:14:39;;;;;;;122.45;46.63;;;;;;;;;;6213795;28;20543;-70
2022/03/15 06:17:48;;;;;;;114.22;45.67;;;;;;;;;;6214346;28;20141;-70
2022/03/15 06:20:49;;;;;;;114.15;44.90;;;;;;;;;;6210882;28;20060;-70
2022/03/15 06:23:49;;;;;;;135.38;48.50;;;;;;;;;;6214867;28;20128;-69
2022/03/15 06:26:50;;;;;;;147.27;51.55;;;;;;;;;;6216386;28;20085;-64
2022/03/15 06:29:51;;;;;;;143.07;52.10;;;;;;;;;;6216234;28;20449;-71
2022/03/15 06:32:51;;;;;;;142.73;50.95;;;;;;;;;;6214938;28;20148;-70
2022/03/15 06:35:52;;;;;;;143.60;50.20;;;;;;;;;;6212561;28;20038;-70
2022/03/15 06:38:53;;;;;;;126.38;48.15;;;;;;;;;;6208281;28;20432;-70
2022/03/15 06:41:54;;;;;;;130.03;48.83;;;;;;;;;;6221174;28;20085;-71
2022/03/15 06:44:55;;;;;;;126.13;46.92;;;;;;;;;;6212269;28;20056;-70
2022/03/15 06:47:55;;;;;;;125.72;46.78;;;;;;;;;;6212510;28;20539;-70
2022/03/15 06:50:56;;;;;;;119.70;48.42;;;;;;;;;;6209455;28;20064;-71
2022/03/15 06:53:57;;;;;;;125.72;47.38;;;;;;;;;;6212567;28;20054;-71
2022/03/15 06:56:57;;;;;;;125.18;47.97;;;;;;;;;;6213602;28;20038;-70
2022/03/15 06:59:59;;;;;;;130.02;49.63;;;;;;;;;;6215276;28;20053;-71
2022/03/15 07:03:00;;;;;;;129.23;46.70;;;;;;;;;;6214699;28;20065;-71
2022/03/15 07:06:02;;;;;;;131.73;49.47;;;;;;;;;;6216361;28;20053;-70
2022/03/15 07:09:03;;;;;;;123.63;46.20;;;;;;;;;;6215592;28;20056;-67
2022/03/15 07:12:04;;;;;;;119.30;46.03;;;;;;;;;;6214905;28;20086;-66
2022/03/15 07:15:06;;;;;;;108.28;43.83;;;;;;;;;;6216076;28;20049;-71
2022/03/15 07:18:07;;;;;;;110.90;46.08;;;;;;;;;;6216666;28;20046;-67
2022/03/15 07:21:07;;;;;;;110.53;46.10;;;;;;;;;;6229952;28;20079;-69
2022/03/15 07:24:08;;;;;;;126.82;48.45;;;;;;;;;;6214899;28;20515;-67
2022/03/15 07:27:09;;;;;;;123.43;52.47;;;;;;;;;;6213366;28;20049;-71
2022/03/15 07:30:11;;;;;;;108.78;44.67;;;;;;;;;;6218711;28;20111;-69
2022/03/15 07:33:11;;;;;;;103.65;45.53;;;;;;;;;;6217177;28;20046;-70
2022/03/15 07:36:12;;;;;;;109.13;42.85;;;;;;;;;;6219976;28;20104;-62
2022/03/15 07:39:13;;;;;;;90.82;37.47;;;;;;;;;;6219814;28;20077;-61
2022/03/15 07:42:14;;;;;;;102.80;39.20;;;;;;;;;;6216019;28;20389;-67
2022/03/15 07:45:15;;;;;;;104.18;37.40;;;;;;;;;;6215763;28;20124;-68
2022/03/15 07:48:17;;;;;;;108.50;39.30;;;;;;;;;;6216995;28;20096;-66
2022/03/15 07:51:17;;;;;;;79.97;33.63;;;;;;;;;;6212920;28;20056;-67
2022/03/15 07:54:18;;;;;;;61.92;26.50;;;;;;;;;;6215398;28;20053;-67
2022/03/15 07:57:18;;;;;;;69.13;30.13;;;;;;;;;;6217108;28;20477;-67
2022/03/15 08:00:19;;;;;;;54.15;24.25;;;;;;;;;;6215140;28;20042;-66
2022/03/15 08:03:22;;;;;;;48.00;21.98;;;;;;;;;;6214945;28;20051;-65
2022/03/15 08:06:23;;;;;;;47.03;21.80;;;;;;;;;;6215049;28;20527;-67
2022/03/15 08:09:23;;;;;;;42.70;19.38;;;;;;;;;;6213399;28;20049;-67
2022/03/15 08:12:25;;;;;;;43.90;19.58;;;;;;;;;;6212137;28;20046;-66
2022/03/15 08:15:26;;;;;;;49.47;20.48;;;;;;;;;;6212511;28;20060;-67
2022/03/15 08:18:27;;;;;;;47.08;20.20;;;;;;;;;;6214896;28;20054;-66
2022/03/15 08:21:28;;;;;;;43.03;19.98;;;;;;;;;;6214351;28;20560;-66
2022/03/15 08:24:29;;;;;;;43.60;19.70;;;;;;;;;;6212740;28;20070;-66
2022/03/15 08:27:31;;;;;;;44.70;20.10;;;;;;;;;;6213377;28;20046;-66
2022/03/15 08:30:33;;;;;;;47.40;21.05;;;;;;;;;;6212596;28;20177;-65
2022/03/15 08:33:34;;;;;;;46.20;20.48;;;;;;;;;;6215109;28;20050;-65
2022/03/15 08:36:36;;;;;;;46.63;20.23;;;;;;;;;;6218156;28;20053;-66
2022/03/15 08:39:37;;;;;;;41.92;19.75;;;;;;;;;;6218334;28;20092;-61
2022/03/15 08:42:38;;;;;;;41.55;18.90;;;;;;;;;;6217733;28;20056;-65
2022/03/15 08:45:39;;;;;;;40.95;19.60;;;;;;;;;;6219264;28;20042;-65
2022/03/15 08:48:40;;;;;;;45.00;20.40;;;;;;;;;;6218922;28;20730;-65
2022/03/15 08:51:42;;;;;;;39.40;18.45;;;;;;;;;;6217254;28;20042;-65
2022/03/15 08:54:44;;;;;;;39.05;19.23;;;;;;;;;;6218636;28;20070;-64
2022/03/15 08:57:45;;;;;;;37.47;19.08;;;;;;;;;;6218814;28;20076;-66
2022/03/15 09:00:46;;;;;;;46.15;21.20;;;;;;;;;;6216124;28;20042;-64
2022/03/15 09:03:46;;;;;;;44.30;19.92;;;;;;;;;;6215296;28;20127;-64
2022/03/15 09:06:47;;;;;;;42.08;19.88;;;;;;;;;;6215330;28;20045;-66
2022/03/15 09:09:48;;;;;;;36.47;18.35;;;;;;;;;;6227563;28;20917;-64
2022/03/15 09:12:51;;;;;;;41.20;18.45;;;;;;;;;;6211384;28;20497;-64
2022/03/15 09:15:52;;;;;;;35.45;16.65;;;;;;;;;;6217387;28;20061;-64
2022/03/15 09:18:53;;;;;;;33.45;16.17;;;;;;;;;;6217641;28;20073;-65
2022/03/15 09:21:53;;;;;;;28.05;13.77;;;;;;;;;;6214446;28;20421;-65
2022/03/15 09:24:54;;;;;;;33.78;14.40;;;;;;;;;;6212111;28;20400;-64
2022/03/15 09:27:55;;;;;;;35.70;16.55;;;;;;;;;;6217679;28;20510;-64
2022/03/15 09:30:55;;;;;;;36.33;15.73;;;;;;;;;;6216337;28;20473;-65
2022/03/15 09:33:56;;;;;;;32.30;16.15;;;;;;;;;;6217470;28;20177;-64
2022/03/15 09:37:00;;;;;;;41.40;17.33;;;;;;;;;;6218154;28;20054;-64
2022/03/15 09:40:05;;;;;;;37.47;18.00;;;;;;;;;;6215268;28;20073;-66
2022/03/15 09:43:07;;;;;;;40.35;18.30;;;;;;;;;;6214566;28;20048;-64
2022/03/15 09:46:09;;;;;;;43.97;18.27;;;;;;;;;;6212789;28;20046;-64
2022/03/15 09:49:10;;;;;;;46.47;20.58;;;;;;;;;;6216991;28;20438;-64
2022/03/15 09:52:11;;;;;;;46.28;19.95;;;;;;;;;;6212213;28;20046;-64
2022/03/15 09:55:12;;;;;;;43.73;20.07;;;;;;;;;;6218159;28;20165;-64
2022/03/15 09:58:17;;;;;;;46.13;20.40;;;;;;;;;;6216819;28;20435;-65
2022/03/15 10:01:18;;;;;;;39.75;18.30;;;;;;;;;;6217085;28;20064;-64
2022/03/15 10:04:23;;;;;;;40.58;19.42;;;;;;;;;;6217012;28;20046;-64
2022/03/15 10:07:24;;;;;;;45.08;19.48;;;;;;;;;;6217844;28;20045;-64
2022/03/15 10:10:25;;;;;;;43.90;19.55;;;;;;;;;;6217171;28;20165;-64
2022/03/15 10:13:25;;;;;;;42.08;19.20;;;;;;;;;;6216585;28;20056;-64
2022/03/15 10:16:35;;;;;;;42.50;18.63;;;;;;;;;;6216740;28;20172;-64
2022/03/15 10:19:35;;;;;;;42.05;18.88;;;;;;;;;;6215857;28;20053;-64
2022/03/15 10:22:36;;;;;;;42.60;19.02;;;;;;;;;;6216363;28;20137;-65
2022/03/15 10:25:42;;;;;;;39.38;18.25;;;;;;;;;;6216960;28;20101;-64
2022/03/15 10:28:46;;;;;;;39.13;17.35;;;;;;;;;;6217503;28;20049;-64
2022/03/15 10:31:47;;;;;;;38.85;17.40;;;;;;;;;;6229995;28;20084;-65
2022/03/15 10:34:49;;;;;;;43.25;19.73;;;;;;;;;;6215681;28;20405;-64
2022/03/15 10:37:51;;;;;;;34.63;17.02;;;;;;;;;;6217532;28;20052;-64
2022/03/15 10:40:53;;;;;;;35.75;17.60;;;;;;;;;;6213398;28;20100;-64
2022/03/15 10:43:54;;;;;;;38.78;17.10;;;;;;;;;;6215769;28;20832;-64
2022/03/15 10:47:04;;;;;;;36.63;17.25;;;;;;;;;;6215914;28;20038;-64
2022/03/15 10:50:05;;;;;;;39.80;18.80;;;;;;;;;;6214778;28;20065;-64
2022/03/15 10:53:08;;;;;;;36.33;16.65;;;;;;;;;;6210522;28;20768;-64
2022/03/15 10:56:21;;;;;;;39.35;16.70;;;;;;;;;;6210769;28;20042;-64
2022/03/15 10:59:22;;;;;;;36.25;16.90;;;;;;;;;;6213144;28;20556;-64
2022/03/15 11:02:30;;;;;;;36.90;16.63;;;;;;;;;;6215844;28;20073;-65
2022/03/15 11:05:33;;;;;;;43.55;16.83;;;;;;;;;;6210890;28;20065;-65
2022/03/15 11:08:37;;;;;;;38.90;16.63;;;;;;;;;;6211457;28;20049;-66
2022/03/15 11:11:41;;;;;;;40.03;17.30;;;;;;;;;;6215132;28;20548;-68
2022/03/15 11:14:47;;;;;;;42.70;17.58;;;;;;;;;;6198628;28;20107;-66
2022/03/15 11:17:49;;;;;;;41.58;17.63;;;;;;;;;;6217957;28;20050;-65
2022/03/15 11:20:51;;;;;;;37.72;16.85;;;;;;;;;;6218379;28;20066;-66
2022/03/15 11:23:52;;;;;;;36.65;17.35;;;;;;;;;;6208604;28;20061;-66
2022/03/15 11:26:54;;;;;;;44.23;19.23;;;;;;;;;;6223506;28;20053;-66
2022/03/15 11:29:57;;;;;;;44.58;20.85;;;;;;;;;;6211030;28;20642;-65
2022/03/15 11:33:00;;;;;;;49.38;25.13;;;;;;;;;;6209165;28;20121;-66
2022/03/15 11:36:03;;;;;;;39.45;17.75;;;;;;;;;;6210318;28;20241;-66
2022/03/15 11:39:05;;;;;;;37.70;17.83;;;;;;;;;;6209075;28;20076;-67
2022/03/15 11:42:11;;;;;;;41.67;18.50;;;;;;;;;;6210950;28;20050;-65
2022/03/15 11:45:30;;;;;;;40.65;18.25;;;;;;;;;;6210044;28;20065;-77
2022/03/15 11:48:46;;;;;;;38.63;16.52;;;;;;;;;;6206694;28;20077;-65
2022/03/15 11:52:17;;;;;;;36.25;16.70;;;;;;;;;;6208549;28;20540;-66
2022/03/15 11:55:49;;;;;;;41.93;18.90;;;;;;;;;;6210365;28;20071;-66
2022/03/15 11:58:56;;;;;;;39.55;18.40;;;;;;;;;;6213046;28;20066;-68
2022/03/15 12:02:01;;;;;;;38.40;17.15;;;;;;;;;;6213082;28;20050;-66
2022/03/15 12:05:20;;;;;;;37.22;16.33;;;;;;;;;;6214159;28;20042;-66
2022/03/15 12:08:23;;;;;;;43.15;18.08;;;;;;;;;;6212119;28;20057;-67
2022/03/15 12:11:36;;;;;;;43.13;17.70;;;;;;;;;;6213756;28;20070;-67
2022/03/15 12:14:44;;;;;;;41.65;17.90;;;;;;;;;;6211735;28;20046;-67
2022/03/15 12:17:45;;;;;;;37.08;17.80;;;;;;;;;;6216153;28;20053;-68
2022/03/15 12:20:54;;;;;;;37.97;16.48;;;;;;;;;;6218052;28;20604;-68
2022/03/15 12:23:55;;;;;;;36.47;15.63;;;;;;;;;;6215704;28;20057;-66
2022/03/15 12:27:05;;;;;;;37.00;15.27;;;;;;;;;;6214971;28;20141;-67
2022/03/15 12:30:08;;;;;;;39.30;16.90;;;;;;;;;;6215545;28;20107;-67
2022/03/15 12:33:08;;;;;;;37.15;16.65;;;;;;;;;;6213096;28;20045;-66
2022/03/15 12:36:11;;;;;;;39.30;17.10;;;;;;;;;;6214523;28;20046;-67
2022/03/15 12:39:15;;;;;;;34.83;15.43;;;;;;;;;;6214002;28;20160;-66
2022/03/15 12:42:16;;;;;;;35.40;15.80;;;;;;;;;;6214526;28;20053;-67
2022/03/15 12:45:17;;;;;;;37.58;15.57;;;;;;;;;;6211510;28;20556;-66
2022/03/15 12:48:29;;;;;;;37.22;15.68;;;;;;;;;;6219420;28;20125;-67
2022/03/15 12:51:41;;;;;;;39.20;16.73;;;;;;;;;;6214125;28;20057;-67
2022/03/15 12:54:44;;;;;;;39.25;16.52;;;;;;;;;;6211599;28;20074;-67
2022/03/15 12:57:47;;;;;;;43.75;15.55;;;;;;;;;;6213494;28;20477;-68
2022/03/15 13:00:48;;;;;;;39.78;17.15;;;;;;;;;;6212661;28;20144;-67
2022/03/15 13:03:49;;;;;;;42.20;16.35;;;;;;;;;;6212483;28;20050;-67
2022/03/15 13:06:50;;;;;;;38.20;17.65;;;;;;;;;;6215115;28;20136;-67
2022/03/15 13:09:56;;;;;;;38.60;17.70;;;;;;;;;;6212971;28;20439;-67
2022/03/15 13:12:57;;;;;;;39.53;16.70;;;;;;;;;;6213638;28;20049;-66
2022/03/15 13:16:01;;;;;;;37.65;16.63;;;;;;;;;;6210481;28;20050;-67
2022/03/15 13:19:04;;;;;;;39.92;17.33;;;;;;;;;;6213730;28;20054;-67
2022/03/15 13:22:05;;;;;;;41.88;18.23;;;;;;;;;;6214842;28;20046;-67
2022/03/15 13:25:08;;;;;;;44.95;18.52;;;;;;;;;;6213145;28;20177;-67
2022/03/15 13:28:17;;;;;;;44.60;17.85;;;;;;;;;;6211404;28;20090;-67
2022/03/15 13:31:22;;;;;;;44.05;18.38;;;;;;;;;;6212118;28;20128;-67
2022/03/15 13:34:31;;;;;;;42.45;17.40;;;;;;;;;;6212907;28;20045;-68
2022/03/15 13:37:34;;;;;;;59.95;18.65;;;;;;;;;;6212752;28;20058;-67
2022/03/15 13:40:34;;;;;;;37.20;17.67;;;;;;;;;;6212989;28;20049;-67
2022/03/15 13:43:37;;;;;;;43.72;19.40;;;;;;;;;;6212649;28;20503;-68
2022/03/15 13:46:39;;;;;;;43.72;18.67;;;;;;;;;;6215663;28;20054;-68
2022/03/15 13:49:47;;;;;;;42.92;18.33;;;;;;;;;;6211962;28;20077;-68
2022/03/15 13:52:48;;;;;;;49.88;19.10;;;;;;;;;;6213372;28;20137;-67
2022/03/15 13:55:51;;;;;;;44.20;18.07;;;;;;;;;;6211717;28;20058;-67
2022/03/15 13:58:54;;;;;;;;;;;;;;;;;;6216743;28;20096;-67
2022/03/15 14:02:01;;;;;;;43.45;18.58;;;;;;;;;;6217774;28;19925;-68
2022/03/15 14:05:04;;;;;;;40.85;17.88;;;;;;;;;;6218015;28;20054;-67
2022/03/15 14:08:12;;;;;;;46.65;20.73;;;;;;;;;;6217322;28;20124;-67
2022/03/15 14:11:14;;;;;;;38.92;17.67;;;;;;;;;;6216975;28;20204;-68
2022/03/15 14:14:22;;;;;;;41.33;18.27;;;;;;;;;;6217799;28;20096;-67
2022/03/15 14:17:31;;;;;;;44.75;19.02;;;;;;;;;;6218714;28;20140;-68
2022/03/15 14:20:41;;;;;;;44.22;18.55;;;;;;;;;;6215079;28;20093;-67
2022/03/15 14:23:53;;;;;;;42.13;18.73;;;;;;;;;;6217545;28;20041;-68
2022/03/15 14:26:56;;;;;;;42.47;17.98;;;;;;;;;;6212692;28;20042;-67
2022/03/15 14:30:00;;;;;;;44.17;17.90;;;;;;;;;;6207418;28;20042;-68
2022/03/15 14:33:20;;;;;;;44.78;18.00;;;;;;;;;;6205201;28;20045;-67
2022/03/15 14:36:32;;;;;;;40.78;19.55;;;;;;;;;;6212978;28;20262;-66
2022/03/15 14:39:35;;;;;;;43.47;19.20;;;;;;;;;;6214853;28;20092;-67
2022/03/15 14:42:37;;;;;;;45.10;18.10;;;;;;;;;;6225085;28;20043;-67
2022/03/15 14:45:38;;;;;;;43.03;18.75;;;;;;;;;;6211056;28;20062;-66
2022/03/15 14:48:43;;;;;;;48.50;19.27;;;;;;;;;;6213944;28;20045;-67
2022/03/15 14:51:44;;;;;;;44.95;18.58;;;;;;;;;;6213448;28;20038;-68
2022/03/15 14:54:47;;;;;;;51.67;18.98;;;;;;;;;;6212752;28;20497;-69
2022/03/15 14:57:48;;;;;;;44.97;18.55;;;;;;;;;;6203129;28;20116;-69
2022/03/15 15:00:52;;;;;;;46.30;18.48;;;;;;;;;;6201742;28;20046;-69
2022/03/15 15:03:53;;;;;;;52.40;23.95;;;;;;;;;;6201885;28;20053;-68
2022/03/15 15:06:55;;;;;;;67.38;27.35;;;;;;;;;;6198405;28;20045;-69
2022/03/15 15:10:00;;;;;;;53.90;24.42;;;;;;;;;;6200934;28;20084;-67
2022/03/15 15:13:01;;;;;;;52.88;24.02;;;;;;;;;;6204643;28;20456;-67
2022/03/15 15:16:02;;;;;;;61.67;23.88;;;;;;;;;;6213617;28;20065;-67
2022/03/15 15:19:03;;;;;;;44.47;20.40;;;;;;;;;;6198652;28;20046;-67
2022/03/15 15:22:04;;;;;;;47.20;19.33;;;;;;;;;;6201695;28;20058;-68
2022/03/15 15:25:05;;;;;;;43.38;18.38;;;;;;;;;;6201668;28;20095;-68
2022/03/15 15:28:11;;;;;;;49.05;18.88;;;;;;;;;;6198712;28;20480;-68
2022/03/15 15:31:12;;;;;;;44.85;17.88;;;;;;;;;;6201838;28;20052;-68
2022/03/15 15:34:15;;;;;;;53.17;16.05;;;;;;;;;;6198223;28;20116;-70
2022/03/15 15:37:16;;;;;;;45.63;16.13;;;;;;;;;;6198612;28;20057;-65
2022/03/15 15:40:19;;;;;;;63.10;24.33;;;;;;;;;;6198460;28;20440;-69
2022/03/15 15:43:21;;;;;;;93.85;40.25;;;;;;;;;;6201225;28;20061;-66
2022/03/15 15:46:21;;;;;;;88.50;36.13;;;;;;;;;;6203158;28;20054;-66
2022/03/15 15:49:23;;;;;;;65.75;27.13;;;;;;;;;;6205252;28;20712;-65
2022/03/15 15:52:24;;;;;;;63.53;25.53;;;;;;;;;;6210873;28;20144;-66
2022/03/15 15:55:26;;;;;;;59.05;24.42;;;;;;;;;;6209757;28;20053;-66
2022/03/15 15:58:27;;;;;;;75.20;28.05;;;;;;;;;;6208057;28;20054;-68
2022/03/15 16:01:30;;;;;;;76.22;29.45;;;;;;;;;;6212756;28;20562;-69
2022/03/15 16:04:30;;;;;;;68.75;25.73;;;;;;;;;;6211086;28;20508;-67
2022/03/15 16:07:33;;;;;;;79.85;28.17;;;;;;;;;;6210159;28;20057;-66
2022/03/15 16:10:35;;;;;;;85.10;30.75;;;;;;;;;;6212934;28;20054;-67
2022/03/15 16:13:36;;;;;;;119.22;39.13;;;;;;;;;;6211432;28;20413;-67
2022/03/15 16:16:38;;;;;;;160.70;48.03;;;;;;;;;;6209776;28;20646;-66
2022/03/15 16:19:38;;;;;;;170.77;50.70;;;;;;;;;;6210804;28;20441;-66
2022/03/15 16:22:39;;;;;;;185.07;52.63;;;;;;;;;;6211512;28;20058;-66
2022/03/15 16:25:40;;;;;;;185.05;54.20;;;;;;;;;;6209636;28;20585;-66
2022/03/15 16:28:41;;;;;;;184.10;56.28;;;;;;;;;;6210143;28;20053;-66
2022/03/15 16:31:42;;;;;;;186.25;59.67;;;;;;;;;;6211915;28;20052;-68
2022/03/15 16:34:43;;;;;;;180.45;62.08;;;;;;;;;;6209901;28;20054;-66
2022/03/15 16:37:44;;;;;;;201.18;66.05;;;;;;;;;;6209808;28;21396;-67
2022/03/15 16:40:46;;;;;;;178.15;65.15;;;;;;;;;;6208289;28;20062;-67
2022/03/15 16:43:46;;;;;;;153.70;59.77;;;;;;;;;;6209716;28;20053;-68
2022/03/15 16:46:48;;;;;;;167.32;68.07;;;;;;;;;;6207764;28;20140;-70
2022/03/15 16:49:49;;;;;;;189.25;75.72;;;;;;;;;;6209097;28;20057;-72
2022/03/15 16:52:50;;;;;;;196.80;80.18;;;;;;;;;;6209468;28;20058;-71
2022/03/15 16:55:50;;;;;;;174.45;75.25;;;;;;;;;;6208236;28;20060;-70
2022/03/15 16:59:08;;;;;;;181.90;70.82;;;;;;;;;;6207363;28;20500;-71
2022/03/15 17:02:09;;;;;;;215.82;79.30;;;;;;;;;;6206241;28;20046;-69
2022/03/15 17:08:34;;;;;;;189.60;76.03;;;;;;;;;;6206570;28;20523;-69
2022/03/15 17:11:39;;;;;;;186.18;71.80;;;;;;;;;;6208134;28;20421;-69
2022/03/15 17:14:40;;;;;;;176.98;64.65;;;;;;;;;;6208784;28;20152;-69
2022/03/15 17:17:42;;;;;;;170.38;66.93;;;;;;;;;;6206444;28;20057;-68
2022/03/15 17:20:45;;;;;;;197.15;72.25;;;;;;;;;;6207294;28;20061;-64
2022/03/15 17:23:49;;;;;;;201.27;71.00;;;;;;;;;;6208834;28;20062;-68
2022/03/15 17:26:50;;;;;;;187.68;68.47;;;;;;;;;;6206447;28;20508;-67
2022/03/15 17:29:55;;;;;;;202.52;71.80;;;;;;;;;;6205771;28;20641;-67
2022/03/15 17:32:57;;;;;;;212.70;75.13;;;;;;;;;;6209621;28;20049;-66
2022/03/15 17:35:57;;;;;;;182.35;71.00;;;;;;;;;;6205620;28;20046;-71
2022/03/15 17:38:58;;;;;;;181.63;71.35;;;;;;;;;;6206135;28;20108;-66
2022/03/15 17:42:03;;;;;;;179.30;70.10;;;;;;;;;;6208312;28;20680;-66